Time;durP1;ratioP1;P1;durP2;ratioP2;P2;SDS_P1;SDS_P2;PMS_P1;PMS_P2;Temp;Humidity;BMP_temperature;BMP_pressure;BME280_temperature;BME280_humidity;BME280_pressure;Samples;Min_cycle;Max_cycle;Signal;HPM_P1;HPM_P2
2024/02/19 00:00:42;;;;;;;1.40;1.30;;;;;;;0.57;100.00;100202.03;4955989;28;20073;-70
2024/02/19 00:03:08;;;;;;;1.30;1.20;;;;;;;0.51;100.00;100194.50;4956540;28;20163;-70
2024/02/19 00:05:34;;;;;;;1.37;1.27;;;;;;;0.52;100.00;100193.56;4953765;28;20063;-70
2024/02/19 00:08:00;;;;;;;1.20;1.20;;;;;;;0.52;100.00;100204.03;4939900;28;20154;-71
2024/02/19 00:10:25;;;;;;;1.30;1.20;;;;;;;0.53;100.00;100200.47;4922173;28;20466;-71
2024/02/19 00:12:51;;;;;;;1.33;1.20;;;;;;;0.52;100.00;100206.63;4937120;28;20047;-74
2024/02/19 00:15:18;;;;;;;1.20;1.10;;;;;;;0.54;100.00;100208.22;4953119;28;20058;-72
2024/02/19 00:17:46;;;;;;;1.20;1.20;;;;;;;0.61;100.00;100203.53;4952811;28;20050;-71
2024/02/19 00:20:16;;;;;;;1.50;1.40;;;;;;;0.55;100.00;100209.09;4984200;28;20483;-71
2024/02/19 00:22:47;;;;;;;1.43;1.33;;;;;;;0.49;100.00;100214.63;4992984;28;20112;-71
2024/02/19 00:25:13;;;;;;;1.20;1.20;;;;;;;0.43;100.00;100220.19;4976735;28;20388;-69
2024/02/19 00:27:39;;;;;;;1.13;1.10;;;;;;;0.41;100.00;100214.19;5006904;28;20053;-69
2024/02/19 00:30:09;;;;;;;1.90;1.40;;;;;;;0.45;100.00;100215.72;5014760;28;20132;-69
2024/02/19 00:32:35;;;;;;;1.93;1.40;;;;;;;0.37;100.00;100221.34;5014663;28;20140;-69
2024/02/19 00:35:01;;;;;;;1.40;1.30;;;;;;;0.37;100.00;100226.56;5031050;28;20052;-69
2024/02/19 00:37:28;;;;;;;1.30;1.20;;;;;;;0.34;100.00;100233.75;4998653;28;20471;-74
2024/02/19 00:39:54;;;;;;;1.13;1.03;;;;;;;0.32;100.00;100222.50;5030952;28;20080;-69
2024/02/19 00:42:20;;;;;;;1.37;1.27;;;;;;;0.28;100.00;100231.44;4998606;28;20052;-69
2024/02/19 00:44:47;;;;;;;1.20;1.10;;;;;;;0.30;100.00;100221.75;5013947;28;20037;-69
2024/02/19 00:47:13;;;;;;;1.30;1.20;;;;;;;0.27;100.00;100216.69;4978130;28;20057;-69
2024/02/19 00:49:40;;;;;;;1.20;1.17;;;;;;;0.31;100.00;100223.44;5010881;28;20392;-69
2024/02/19 00:52:06;;;;;;;1.40;1.30;;;;;;;0.27;100.00;100225.38;4994455;28;20065;-70
2024/02/19 00:54:31;;;;;;;1.20;1.20;;;;;;;0.26;100.00;100230.66;4994381;28;20099;-71
2024/02/19 00:56:57;;;;;;;1.50;1.00;;;;;;;0.27;100.00;100234.97;4997531;28;20643;-70
2024/02/19 00:59:23;;;;;;;1.33;1.23;;;;;;;0.27;100.00;100230.59;4981400;28;20072;-69
2024/02/19 01:01:51;;;;;;;1.00;1.00;;;;;;;0.29;100.00;100233.13;5032574;28;20052;-69
2024/02/19 01:04:17;;;;;;;1.10;1.10;;;;;;;0.28;100.00;100239.28;5000819;28;20044;-69
2024/02/19 01:06:46;;;;;;;1.10;1.10;;;;;;;0.28;100.00;100241.91;5050794;28;20578;-69
2024/02/19 01:09:12;;;;;;;1.10;1.10;;;;;;;0.31;100.00;100241.75;4984524;28;20151;-69
2024/02/19 01:11:38;;;;;;;1.10;1.10;;;;;;;0.29;100.00;100244.44;5000119;28;20044;-70
2024/02/19 01:14:03;;;;;;;1.10;1.10;;;;;;;0.27;100.00;100240.19;4999836;28;20448;-69
2024/02/19 01:16:32;;;;;;;1.00;1.00;;;;;;;0.29;100.00;100248.78;4993586;28;20440;-69
2024/02/19 01:18:59;;;;;;;1.20;1.20;;;;;;;0.30;100.00;100250.47;5009885;28;20144;-69
2024/02/19 01:21:25;;;;;;;1.20;1.20;;;;;;;0.32;100.00;100251.25;4996202;28;20436;-69
2024/02/19 01:23:51;;;;;;;1.40;1.30;;;;;;;0.33;100.00;100253.78;4996775;28;20193;-69
2024/02/19 01:26:23;;;;;;;1.30;1.20;;;;;;;0.43;100.00;100251.53;4980362;28;20357;-69
2024/02/19 01:28:49;;;;;;;1.27;1.20;;;;;;;0.37;100.00;100255.31;4996389;28;20076;-70
2024/02/19 01:31:15;;;;;;;1.23;1.23;;;;;;;0.39;100.00;100247.38;5012772;28;20052;-70
2024/02/19 01:33:42;;;;;;;1.50;1.37;;;;;;;0.40;100.00;100254.31;4976162;28;20054;-69
2024/02/19 01:36:08;;;;;;;1.40;1.30;;;;;;;0.42;100.00;100255.06;4993527;28;20053;-70
2024/02/19 01:38:36;;;;;;;1.83;1.70;;;;;;;0.43;100.00;100249.75;4961271;28;20192;-70
2024/02/19 01:41:04;;;;;;;1.77;1.67;;;;;;;0.48;100.00;100254.78;4980162;28;20057;-71
2024/02/19 01:43:31;;;;;;;1.70;1.60;;;;;;;0.49;100.00;100252.06;4977922;28;20424;-69
2024/02/19 01:45:57;;;;;;;1.93;1.70;;;;;;;0.54;100.00;100259.69;4977539;28;20121;-69
2024/02/19 01:48:22;;;;;;;1.90;1.70;;;;;;;0.55;100.00;100261.34;4977524;28;20057;-69
2024/02/19 01:50:49;;;;;;;1.87;1.77;;;;;;;0.55;100.00;100259.59;4977342;28;20496;-69
2024/02/19 01:53:16;;;;;;;1.80;1.70;;;;;;;0.53;100.00;100264.06;4982658;28;20068;-69
2024/02/19 01:55:42;;;;;;;1.60;1.50;;;;;;;0.53;100.00;100263.19;4981626;28;20077;-69
2024/02/19 01:58:10;;;;;;;1.70;1.60;;;;;;;0.56;100.00;100270.88;5013380;28;20064;-69
2024/02/19 02:00:45;;;;;;;2.03;1.83;;;;;;;0.53;100.00;100263.19;4983265;28;20038;-70
2024/02/19 02:03:15;;;;;;;1.80;1.70;;;;;;;0.61;100.00;100274.09;4980764;28;20054;-70
2024/02/19 02:05:41;;;;;;;1.70;1.60;;;;;;;0.49;100.00;100266.91;4997205;28;20080;-71
2024/02/19 02:08:07;;;;;;;1.80;1.70;;;;;;;0.52;100.00;100278.06;4983779;28;20185;-70
2024/02/19 02:10:34;;;;;;;1.40;1.30;;;;;;;0.57;100.00;100276.03;5000725;28;20156;-68
2024/02/19 02:13:00;;;;;;;1.57;1.47;;;;;;;0.52;100.00;100271.97;5001061;28;20080;-70
2024/02/19 02:15:26;;;;;;;2.97;1.67;;;;;;;0.50;100.00;100276.41;5019495;28;20045;-70
2024/02/19 02:17:53;;;;;;;1.40;1.30;;;;;;;0.48;100.00;100275.69;4987046;28;20052;-73
2024/02/19 02:20:19;;;;;;;1.73;1.63;;;;;;;0.47;100.00;100279.19;4986998;28;20110;-70
2024/02/19 02:22:45;;;;;;;1.43;1.33;;;;;;;0.47;100.00;100269.59;5003030;28;20057;-70
2024/02/19 02:25:11;;;;;;;1.53;1.43;;;;;;;0.46;100.00;100261.84;4986942;28;20136;-70
2024/02/19 02:27:37;;;;;;;1.40;1.30;;;;;;;0.46;100.00;100272.28;5002749;28;20057;-70
2024/02/19 02:30:05;;;;;;;1.50;1.40;;;;;;;0.50;100.00;100268.59;5035475;28;20368;-74
2024/02/19 02:32:33;;;;;;;1.40;1.30;;;;;;;0.47;100.00;100259.16;5036100;28;20136;-69
2024/02/19 02:35:00;;;;;;;1.40;1.30;;;;;;;0.47;100.00;100263.50;4987223;28;20047;-69
2024/02/19 02:37:26;;;;;;;2.30;1.47;;;;;;;0.50;100.00;100268.59;4986436;28;20049;-71
2024/02/19 02:39:54;;;;;;;1.70;1.60;;;;;;;0.48;100.00;100263.44;5016749;28;20061;-69
2024/02/19 02:42:20;;;;;;;1.50;1.40;;;;;;;0.54;100.00;100268.34;5017068;28;20053;-69
2024/02/19 02:44:47;;;;;;;1.90;1.50;;;;;;;0.51;100.00;100267.69;4984847;28;20045;-70
2024/02/19 02:47:14;;;;;;;1.77;1.67;;;;;;;0.50;100.00;100260.75;5000258;28;20111;-70
2024/02/19 02:49:40;;;;;;;1.60;1.50;;;;;;;0.51;100.00;100275.53;5032880;28;20059;-69
2024/02/19 02:52:06;;;;;;;1.77;1.50;;;;;;;0.50;100.00;100268.59;5016500;28;20483;-70
2024/02/19 02:54:33;;;;;;;1.40;1.30;;;;;;;0.49;100.00;100277.34;5000560;28;20081;-69
2024/02/19 02:57:00;;;;;;;1.67;1.50;;;;;;;0.52;100.00;100279.81;5033687;28;20135;-69
2024/02/19 02:59:26;;;;;;;2.57;1.50;;;;;;;0.42;100.00;100271.59;4999578;28;20037;-73
2024/02/19 03:01:51;;;;;;;3.07;2.00;;;;;;;0.45;100.00;100289.72;5032853;28;20400;-71
2024/02/19 03:04:18;;;;;;;1.60;1.50;;;;;;;0.43;100.00;100286.34;5033306;28;20060;-74
2024/02/19 03:06:44;;;;;;;1.60;1.33;;;;;;;0.43;100.00;100296.78;5034713;28;20038;-75
2024/02/19 03:09:10;;;;;;;1.60;1.50;;;;;;;0.44;100.00;100290.66;5000609;28;20052;-73
2024/02/19 03:11:35;;;;;;;1.70;1.60;;;;;;;0.44;100.00;100311.56;5001624;28;20396;-74
2024/02/19 03:14:01;;;;;;;1.50;1.40;;;;;;;0.44;100.00;100302.88;5033692;28;20138;-74
2024/02/19 03:16:27;;;;;;;1.50;1.40;;;;;;;0.41;100.00;100310.88;5033015;28;20146;-75
2024/02/19 03:18:53;;;;;;;1.70;1.60;;;;;;;0.43;100.00;100320.31;5016343;28;20033;-74
2024/02/19 03:21:22;;;;;;;1.50;1.40;;;;;;;0.44;100.00;100314.19;5033087;28;20056;-77
2024/02/19 03:23:51;;;;;;;1.97;1.50;;;;;;;0.44;100.00;100314.19;5016142;28;20053;-71
2024/02/19 03:26:27;;;;;;;1.93;1.37;;;;;;;0.49;100.00;100321.78;5002144;28;20123;-77
2024/02/19 03:28:53;;;;;;;1.40;1.30;;;;;;;0.40;100.00;100324.88;4984799;28;20484;-75
2024/02/19 03:31:24;;;;;;;1.70;1.60;;;;;;;0.46;100.00;100321.94;5040340;28;20051;-76
2024/02/19 03:33:50;;;;;;;1.30;1.20;;;;;;;0.41;100.00;100337.00;5032218;28;20143;-76
2024/02/19 03:36:16;;;;;;;1.60;1.50;;;;;;;0.41;100.00;100331.78;5049748;28;20041;-77
2024/02/19 03:38:42;;;;;;;1.70;1.50;;;;;;;0.43;100.00;100324.72;5018285;28;20045;-77
2024/02/19 03:41:08;;;;;;;1.93;1.70;;;;;;;0.42;100.00;100331.69;5032818;28;20052;-70
2024/02/19 03:43:34;;;;;;;1.70;1.60;;;;;;;0.42;100.00;100338.66;5051356;28;20053;-73
2024/02/19 03:46:05;;;;;;;1.87;1.63;;;;;;;0.41;100.00;100327.41;4999553;28;20033;-73
2024/02/19 03:48:32;;;;;;;1.70;1.60;;;;;;;0.44;100.00;100342.91;5024090;28;20160;-72
2024/02/19 03:50:57;;;;;;;2.03;1.73;;;;;;;0.37;100.00;100331.06;5019916;28;20083;-72
2024/02/19 03:53:23;;;;;;;1.70;1.60;;;;;;;0.37;100.00;100340.69;5025637;28;20060;-72
2024/02/19 03:55:49;;;;;;;1.70;1.60;;;;;;;0.35;100.00;100343.38;5040393;28;20068;-73
2024/02/19 03:58:15;;;;;;;1.93;1.80;;;;;;;0.36;100.00;100349.44;5042967;28;20044;-73
2024/02/19 04:00:41;;;;;;;2.40;1.67;;;;;;;0.32;100.00;100340.06;5024933;28;20498;-72
2024/02/19 04:03:07;;;;;;;1.50;1.40;;;;;;;0.30;100.00;100355.81;5023880;28;20127;-73
2024/02/19 04:05:33;;;;;;;2.20;1.63;;;;;;;0.26;100.00;100359.53;5042240;28;20479;-73
2024/02/19 04:07:58;;;;;;;2.00;1.70;;;;;;;0.24;100.00;100365.72;5041613;28;20064;-73
2024/02/19 04:10:24;;;;;;;1.70;1.60;;;;;;;0.15;100.00;100366.19;5041706;28;20087;-73
2024/02/19 04:12:50;;;;;;;2.77;1.60;;;;;;;0.21;100.00;100366.72;5043347;28;20049;-74
2024/02/19 04:15:17;;;;;;;4.83;1.70;;;;;;;0.20;100.00;100369.41;5044448;28;20044;-80
2024/02/19 04:17:47;;;;;;;2.27;1.90;;;;;;;0.18;100.00;100371.25;5020497;28;20041;-70
2024/02/19 04:20:13;;;;;;;2.00;1.80;;;;;;;0.11;100.00;100373.31;4998343;28;20084;-74
2024/02/19 04:22:38;;;;;;;2.00;1.80;;;;;;;0.11;100.00;100373.31;5026940;28;20423;-75
2024/02/19 04:25:04;;;;;;;3.20;1.60;;;;;;;0.09;100.00;100379.53;5043623;28;20037;-72
2024/02/19 04:27:30;;;;;;;1.73;1.63;;;;;;;0.05;100.00;100380.63;5040601;28;20114;-72
2024/02/19 04:29:55;;;;;;;1.70;1.40;;;;;;;0.00;100.00;100381.66;5042620;28;20045;-71
2024/02/19 04:32:21;;;;;;;1.70;1.60;;;;;;;-0.04;100.00;100381.91;5026353;28;20041;-74
2024/02/19 04:34:47;;;;;;;1.47;1.37;;;;;;;-0.10;100.00;100385.66;5040084;28;20124;-75
2024/02/19 04:37:14;;;;;;;1.90;1.30;;;;;;;-0.12;100.00;100390.09;5020166;28;20079;-73
2024/02/19 04:39:41;;;;;;;1.60;1.33;;;;;;;-0.11;100.00;100391.78;5032675;28;20046;-73
2024/02/19 04:42:09;;;;;;;1.40;1.30;;;;;;;-0.15;100.00;100390.25;5051144;28;20187;-76
2024/02/19 04:44:35;;;;;;;1.40;1.30;;;;;;;-0.13;100.00;100392.78;5058673;28;20056;-76
2024/02/19 04:47:01;;;;;;;1.77;1.37;;;;;;;-0.15;100.00;100389.38;5032277;28;20057;-76
2024/02/19 04:49:27;;;;;;;1.50;1.30;;;;;;;-0.17;100.00;100384.25;5015464;28;20604;-77
2024/02/19 04:51:54;;;;;;;2.10;1.40;;;;;;;-0.16;100.00;100400.75;5033995;28;20135;-77
2024/02/19 04:54:20;;;;;;;1.40;1.30;;;;;;;-0.21;100.00;100395.75;5033075;28;20530;-77
2024/02/19 04:56:46;;;;;;;1.33;1.10;;;;;;;-0.28;100.00;100393.50;5033487;28;20420;-77
2024/02/19 04:59:12;;;;;;;2.00;1.33;;;;;;;-0.27;100.00;100395.19;5018124;28;20048;-73
2024/02/19 05:01:38;;;;;;;2.03;1.30;;;;;;;-0.34;100.00;100389.41;5050991;28;20414;-74
2024/02/19 05:04:03;;;;;;;1.40;1.30;;;;;;;-0.31;100.00;100402.31;5034598;28;20564;-76
2024/02/19 05:06:29;;;;;;;1.57;1.47;;;;;;;-0.30;100.00;100404.03;5052598;28;20045;-76
2024/02/19 05:08:55;;;;;;;1.40;1.30;;;;;;;-0.31;100.00;100410.13;5018116;28;20515;-75
2024/02/19 05:11:21;;;;;;;1.67;1.37;;;;;;;-0.28;100.00;100407.38;5049987;28;20045;-73
2024/02/19 05:13:46;;;;;;;1.60;1.40;;;;;;;-0.27;100.00;100411.72;5032247;28;20115;-75
2024/02/19 05:16:12;;;;;;;1.40;1.30;;;;;;;-0.27;100.00;100411.72;5003622;28;20130;-71
2024/02/19 05:18:38;;;;;;;1.87;1.37;;;;;;;-0.25;100.00;100409.84;5036262;28;20551;-72
2024/02/19 05:21:05;;;;;;;1.30;1.20;;;;;;;-0.23;100.00;100405.41;5036267;28;20097;-73
2024/02/19 05:23:32;;;;;;;1.23;1.20;;;;;;;-0.18;100.00;100416.50;5035320;28;20041;-72
2024/02/19 05:26:00;;;;;;;1.30;1.20;;;;;;;-0.25;100.00;100414.25;5019120;28;20430;-72
2024/02/19 05:28:25;;;;;;;1.40;1.30;;;;;;;-0.22;100.00;100422.78;5035535;28;20096;-71
2024/02/19 05:30:52;;;;;;;1.20;1.10;;;;;;;-0.21;100.00;100415.78;5034720;28;20057;-72
2024/02/19 05:33:18;;;;;;;1.30;1.20;;;;;;;-0.22;100.00;100412.34;5002829;28;20140;-81
2024/02/19 05:35:45;;;;;;;1.43;1.23;;;;;;;-0.20;100.00;100417.50;4986247;28;20107;-73
2024/02/19 05:38:12;;;;;;;2.00;1.53;;;;;;;-0.11;100.00;100428.31;5035897;28;20052;-72
2024/02/19 05:40:39;;;;;;;1.40;1.30;;;;;;;-0.11;100.00;100432.72;5018730;28;20514;-73
2024/02/19 05:43:05;;;;;;;1.30;1.20;;;;;;;-0.15;100.00;100424.19;5035839;28;20136;-72
2024/02/19 05:45:32;;;;;;;1.60;1.50;;;;;;;-0.13;100.00;100435.41;5003236;28;20068;-72
2024/02/19 05:47:59;;;;;;;1.17;1.10;;;;;;;-0.11;100.00;100440.56;5036483;28;20084;-74
2024/02/19 05:50:27;;;;;;;1.30;1.20;;;;;;;-0.11;100.00;100436.16;5018884;28;20053;-73
2024/02/19 05:52:53;;;;;;;1.70;1.30;;;;;;;-0.07;100.00;100434.25;5036382;28;20494;-74
2024/02/19 05:55:19;;;;;;;1.03;1.03;;;;;;;-0.07;100.00;100435.13;5034981;28;20069;-73
2024/02/19 05:57:46;;;;;;;1.43;1.30;;;;;;;-0.02;100.00;100446.16;5034320;28;20458;-71
2024/02/19 06:00:15;;;;;;;1.17;1.10;;;;;;;-0.08;100.00;100445.63;5017977;28;20068;-72
2024/02/19 06:02:43;;;;;;;1.17;1.17;;;;;;;0.06;100.00;100444.97;5017946;28;20041;-72
2024/02/19 06:05:10;;;;;;;1.40;1.30;;;;;;;0.06;100.00;100447.59;5034644;28;20045;-73
2024/02/19 06:07:36;;;;;;;1.30;1.20;;;;;;;0.07;100.00;100450.13;5017706;28;20041;-72
2024/02/19 06:10:03;;;;;;;1.50;1.40;;;;;;;0.08;100.00;100448.38;5035236;28;20075;-72
2024/02/19 06:12:30;;;;;;;1.40;1.30;;;;;;;0.09;100.00;100455.28;5033837;28;20049;-73
2024/02/19 06:14:56;;;;;;;1.60;1.50;;;;;;;0.06;100.00;100450.19;5017408;28;20384;-72
2024/02/19 06:17:23;;;;;;;1.30;1.20;;;;;;;0.10;100.00;100463.03;5034002;28;20479;-73
2024/02/19 06:19:50;;;;;;;1.50;1.40;;;;;;;0.13;100.00;100464.66;5017553;28;20041;-73
2024/02/19 06:22:16;;;;;;;1.60;1.50;;;;;;;0.12;100.00;100458.59;5017955;28;20146;-71
2024/02/19 06:24:45;;;;;;;1.40;1.30;;;;;;;0.19;100.00;100467.81;5034341;28;20041;-72
2024/02/19 06:27:11;;;;;;;1.57;1.47;;;;;;;0.15;100.00;100471.50;5016503;28;20144;-72
2024/02/19 06:29:36;;;;;;;1.60;1.50;;;;;;;0.16;100.00;100467.09;5017551;28;20566;-73
2024/02/19 06:32:02;;;;;;;1.90;1.40;;;;;;;0.20;100.00;100471.28;5034462;28;20041;-71
2024/02/19 06:34:28;;;;;;;2.03;1.60;;;;;;;0.20;100.00;100472.13;5035569;28;20037;-72
2024/02/19 06:36:54;;;;;;;2.03;1.90;;;;;;;0.21;100.00;100475.59;5018559;28;20399;-72
2024/02/19 06:39:21;;;;;;;2.10;1.90;;;;;;;0.23;100.00;100485.03;5017076;28;20583;-72
2024/02/19 06:41:47;;;;;;;2.40;2.00;;;;;;;0.25;100.00;100482.38;5052237;28;20442;-72
2024/02/19 06:44:13;;;;;;;2.60;1.90;;;;;;;0.23;100.00;100478.97;5036204;28;20053;-73
2024/02/19 06:46:40;;;;;;;1.83;1.73;;;;;;;0.20;100.00;100476.50;5052413;28;20057;-71
2024/02/19 06:49:05;;;;;;;2.00;1.90;;;;;;;0.18;100.00;100473.13;5052156;28;20526;-72
2024/02/19 06:51:31;;;;;;;2.07;1.90;;;;;;;0.20;100.00;100486.97;5035316;28;20446;-71
2024/02/19 06:53:57;;;;;;;2.83;1.90;;;;;;;0.24;100.00;100480.66;5035676;28;20067;-72
2024/02/19 06:56:23;;;;;;;2.40;1.87;;;;;;;0.18;100.00;100491.41;5019191;28;20283;-71
2024/02/19 06:58:50;;;;;;;2.33;1.80;;;;;;;0.19;100.00;100498.31;5019138;28;20041;-71
2024/02/19 07:01:15;;;;;;;2.20;2.00;;;;;;;0.22;100.00;100496.41;5052268;28;20514;-72
2024/02/19 07:03:42;;;;;;;2.20;2.00;;;;;;;0.28;100.00;100503.13;5052339;28;20380;-72
2024/02/19 07:06:08;;;;;;;3.47;2.10;;;;;;;0.32;100.00;100504.66;5051071;28;20049;-72
2024/02/19 07:08:34;;;;;;;2.50;2.30;;;;;;;0.37;100.00;100507.91;5069109;28;20080;-70
2024/02/19 07:11:00;;;;;;;2.03;1.93;;;;;;;0.41;100.00;100507.69;5036077;28;20044;-72
2024/02/19 07:13:25;;;;;;;2.20;2.00;;;;;;;0.49;100.00;100502.94;5039896;28;20143;-72
2024/02/19 07:15:51;;;;;;;2.27;1.87;;;;;;;0.57;100.00;100507.78;5014182;28;20368;-71
2024/02/19 07:18:17;;;;;;;1.80;1.70;;;;;;;0.68;100.00;100508.94;5013445;28;20045;-71
2024/02/19 07:20:43;;;;;;;2.00;1.70;;;;;;;0.74;100.00;100511.25;5031549;28;20072;-72
2024/02/19 07:23:09;;;;;;;1.83;1.73;;;;;;;0.80;100.00;100510.97;4997990;28;20244;-71
2024/02/19 07:25:34;;;;;;;1.83;1.73;;;;;;;0.90;100.00;100511.34;5030329;28;20048;-71
2024/02/19 07:28:00;;;;;;;1.67;1.57;;;;;;;0.95;100.00;100507.59;5013619;28;20065;-71
2024/02/19 07:30:26;;;;;;;1.83;1.73;;;;;;;1.03;100.00;100502.81;4997004;28;20072;-71
2024/02/19 07:32:52;;;;;;;2.53;2.00;;;;;;;1.06;100.00;100500.03;5031192;28;20041;-71
2024/02/19 07:35:18;;;;;;;2.30;2.10;;;;;;;1.13;100.00;100505.81;5031147;28;20041;-71
2024/02/19 07:37:44;;;;;;;1.97;1.87;;;;;;;1.15;100.00;100509.22;5028888;28;20785;-72
2024/02/19 07:40:10;;;;;;;1.90;1.80;;;;;;;1.23;100.00;100517.53;5013665;28;20049;-71
2024/02/19 07:42:36;;;;;;;2.10;1.90;;;;;;;1.28;100.00;100513.72;5029299;28;20620;-72
2024/02/19 07:45:05;;;;;;;2.10;1.90;;;;;;;1.34;100.00;100512.56;5029585;28;20468;-70
2024/02/19 07:47:32;;;;;;;2.23;1.70;;;;;;;1.30;100.00;100506.66;5013174;28;20049;-71
2024/02/19 07:49:58;;;;;;;2.40;1.83;;;;;;;1.33;100.00;100516.09;5046018;28;20049;-71
2024/02/19 07:52:24;;;;;;;1.80;1.70;;;;;;;1.31;100.00;100503.09;5012816;28;20060;-71
2024/02/19 07:54:50;;;;;;;1.60;1.50;;;;;;;1.45;100.00;100523.31;5029676;28;20407;-72
2024/02/19 07:57:16;;;;;;;2.20;1.93;;;;;;;1.46;100.00;100519.81;5030199;28;20049;-71
2024/02/19 07:59:41;;;;;;;2.27;1.77;;;;;;;1.50;100.00;100521.31;5030459;28;20148;-71
2024/02/19 08:02:07;;;;;;;2.20;1.90;;;;;;;1.51;100.00;100525.63;5029355;28;20042;-70
2024/02/19 08:04:33;;;;;;;2.20;2.00;;;;;;;1.53;100.00;100521.16;5029937;28;20038;-71
2024/02/19 08:07:00;;;;;;;1.77;1.67;;;;;;;1.54;100.00;100528.94;5029957;28;20041;-72
2024/02/19 08:09:26;;;;;;;2.20;2.00;;;;;;;1.57;100.00;100527.91;5029314;28;20472;-71
2024/02/19 08:11:51;;;;;;;2.00;1.90;;;;;;;1.65;100.00;100531.84;5029244;28;20064;-71
2024/02/19 08:14:18;;;;;;;1.73;1.53;;;;;;;1.74;100.00;100533.13;5029990;28;20038;-71
2024/02/19 08:16:48;;;;;;;2.40;1.83;;;;;;;1.89;100.00;100534.09;5030002;28;20454;-71
2024/02/19 08:19:14;;;;;;;1.60;1.50;;;;;;;1.93;100.00;100541.69;5012617;28;20115;-71
2024/02/19 08:21:41;;;;;;;1.67;1.57;;;;;;;2.00;100.00;100537.81;5029504;28;20049;-71
2024/02/19 08:24:07;;;;;;;1.70;1.60;;;;;;;2.03;100.00;100526.34;5030563;28;20392;-72
2024/02/19 08:26:32;;;;;;;1.60;1.50;;;;;;;2.06;100.00;100542.72;5030025;28;20053;-72
2024/02/19 08:28:59;;;;;;;1.57;1.47;;;;;;;2.07;100.00;100541.81;5029747;28;20072;-71
2024/02/19 08:31:27;;;;;;;2.03;1.70;;;;;;;2.11;100.00;100542.50;5028423;28;20041;-71
2024/02/19 08:34:02;;;;;;;1.70;1.60;;;;;;;2.25;100.00;100545.19;5012778;28;20037;-71
2024/02/19 08:36:27;;;;;;;1.73;1.63;;;;;;;2.20;100.00;100542.00;5028598;28;20111;-71
2024/02/19 08:38:54;;;;;;;2.10;1.57;;;;;;;2.26;100.00;100544.28;5012434;28;20053;-69
2024/02/19 08:41:20;;;;;;;1.87;1.67;;;;;;;2.28;100.00;100548.50;5030804;28;20120;-72
2024/02/19 08:43:46;;;;;;;1.93;1.83;;;;;;;2.33;100.00;100553.47;5030202;28;20057;-72
2024/02/19 08:46:12;;;;;;;2.40;2.17;;;;;;;2.34;100.00;100547.34;5015047;28;20495;-71
2024/02/19 08:48:37;;;;;;;2.23;2.03;;;;;;;2.42;100.00;100556.44;5030475;28;20045;-70
2024/02/19 08:51:04;;;;;;;2.30;1.80;;;;;;;2.50;100.00;100548.16;5030003;28;20045;-70
2024/02/19 08:53:30;;;;;;;2.20;2.00;;;;;;;2.53;100.00;100553.22;5013099;28;20044;-72
2024/02/19 08:55:57;;;;;;;2.70;1.97;;;;;;;2.57;100.00;100560.84;5030426;28;20049;-72
2024/02/19 08:58:25;;;;;;;2.13;1.93;;;;;;;2.65;100.00;100566.50;5029795;28;20056;-72
2024/02/19 09:00:51;;;;;;;2.20;2.00;;;;;;;2.71;100.00;100558.28;5012946;28;20080;-71
2024/02/19 09:03:17;;;;;;;2.30;2.10;;;;;;;2.80;100.00;100564.78;5011990;28;20041;-72
2024/02/19 09:05:44;;;;;;;2.20;2.00;;;;;;;2.88;100.00;100563.44;5029504;28;20068;-71
2024/02/19 09:08:10;;;;;;;1.90;1.80;;;;;;;2.88;100.00;100566.06;4995222;28;20450;-71
2024/02/19 09:10:37;;;;;;;2.97;1.87;;;;;;;2.89;100.00;100570.34;5029157;28;20071;-71
2024/02/19 09:13:06;;;;;;;2.57;2.13;;;;;;;2.84;100.00;100568.94;5012117;28;20472;-70
2024/02/19 09:15:32;;;;;;;2.77;2.40;;;;;;;2.81;100.00;100575.22;5028896;28;20099;-70
2024/02/19 09:17:57;;;;;;;2.57;2.37;;;;;;;2.81;100.00;100569.97;5027818;28;20442;-71
2024/02/19 09:20:24;;;;;;;3.37;2.37;;;;;;;2.82;100.00;100568.16;5011750;28;20049;-70
2024/02/19 09:22:49;;;;;;;3.20;2.90;;;;;;;2.85;100.00;100573.25;5039945;28;20434;-70
2024/02/19 09:25:15;;;;;;;2.93;2.63;;;;;;;2.99;100.00;100574.16;5050781;28;20506;-71
2024/02/19 09:27:42;;;;;;;2.80;2.60;;;;;;;3.41;100.00;100578.72;5018195;28;20415;-69
2024/02/19 09:30:10;;;;;;;3.30;3.00;;;;;;;3.76;100.00;100566.09;5051541;28;20102;-71
2024/02/19 09:32:35;;;;;;;3.25;2.80;;;;;;;4.05;100.00;100567.78;5051456;28;20045;-73
2024/02/19 09:35:02;;;;;;;2.70;2.50;;;;;;;4.15;100.00;100566.28;5001418;28;20048;-77
2024/02/19 09:37:29;;;;;;;2.67;2.47;;;;;;;4.11;100.00;100577.91;5033986;28;20152;-70
2024/02/19 09:39:58;;;;;;;3.17;2.65;;;;;;;4.09;100.00;100574.56;5050737;28;20457;-67
2024/02/19 09:42:29;;;;;;;2.67;2.47;;;;;;;3.98;100.00;100577.84;5018410;28;20051;-68
2024/02/19 09:44:57;;;;;;;2.60;2.40;;;;;;;3.87;100.00;100568.91;4996799;28;20095;-68
2024/02/19 09:47:23;;;;;;;2.80;2.40;;;;;;;3.83;100.00;100580.56;4994868;28;20049;-67
2024/02/19 09:49:52;;;;;;;2.77;2.50;;;;;;;3.71;100.00;100573.38;4981206;28;20474;-67
2024/02/19 09:52:25;;;;;;;2.70;2.50;;;;;;;3.73;100.00;100584.66;4990610;28;20601;-67
2024/02/19 09:54:53;;;;;;;2.20;2.03;;;;;;;3.59;100.00;100587.25;4958795;28;20062;-67
2024/02/19 09:57:19;;;;;;;2.47;2.27;;;;;;;3.58;100.00;100590.84;4954967;28;20050;-67
2024/02/19 09:59:48;;;;;;;2.17;2.07;;;;;;;3.75;100.00;100588.91;4955328;28;20503;-68
2024/02/19 10:02:21;;;;;;;2.77;2.20;;;;;;;3.90;100.00;100589.75;4958177;28;20216;-67
2024/02/19 10:04:48;;;;;;;2.90;2.38;;;;;;;3.94;100.00;100589.47;4976478;28;20050;-67
2024/02/19 10:07:21;;;;;;;2.63;2.30;;;;;;;3.99;100.00;100597.94;4944971;28;20054;-67
2024/02/19 10:09:47;;;;;;;2.50;2.30;;;;;;;4.06;100.00;100596.59;4945341;28;20057;-67
2024/02/19 10:12:13;;;;;;;2.95;2.75;;;;;;;4.25;100.00;100594.53;4945621;28;20429;-67
2024/02/19 10:14:39;;;;;;;2.45;2.25;;;;;;;4.50;100.00;100593.84;4945377;28;20054;-67
2024/02/19 10:17:05;;;;;;;3.60;2.47;;;;;;;4.72;100.00;100596.81;4999362;28;20152;-67
2024/02/19 10:19:31;;;;;;;2.95;2.17;;;;;;;4.84;100.00;100591.59;5016309;28;20196;-67
2024/02/19 10:21:58;;;;;;;2.00;1.90;;;;;;;4.89;100.00;100599.19;5000313;28;20173;-66
2024/02/19 10:24:26;;;;;;;1.90;1.80;;;;;;;4.90;100.00;100593.84;5019161;28;20139;-66
2024/02/19 10:26:53;;;;;;;2.30;2.10;;;;;;;4.94;100.00;100592.69;5003186;28;20483;-67
2024/02/19 10:29:21;;;;;;;2.45;1.98;;;;;;;5.00;100.00;100586.19;5016494;28;20064;-67
2024/02/19 10:31:47;;;;;;;2.15;1.98;;;;;;;5.09;100.00;100570.63;5016860;28;20106;-66
2024/02/19 10:34:15;;;;;;;3.55;2.45;;;;;;;5.07;100.00;100561.16;5019213;28;20052;-67
2024/02/19 10:36:46;;;;;;;3.75;2.72;;;;;;;5.16;100.00;100571.06;5052481;28;20106;-67
2024/02/19 10:39:12;;;;;;;2.80;2.60;;;;;;;5.07;100.00;100572.50;5002846;28;20052;-66
2024/02/19 10:41:39;;;;;;;2.53;2.33;;;;;;;4.98;100.00;100559.13;5012815;28;20144;-66
2024/02/19 10:44:06;;;;;;;2.50;2.30;;;;;;;5.05;100.00;100568.31;4963819;28;20136;-66
2024/02/19 10:46:32;;;;;;;2.15;1.98;;;;;;;5.00;100.00;100565.13;4979815;28;20145;-66
2024/02/19 10:48:58;;;;;;;2.20;1.92;;;;;;;4.99;100.00;100553.78;4980202;28;20046;-66
2024/02/19 10:51:25;;;;;;;2.63;2.42;;;;;;;5.03;100.00;100559.66;4963558;28;20148;-67
2024/02/19 10:53:59;;;;;;;2.13;1.90;;;;;;;5.11;100.00;100565.25;4980119;28;20064;-67
2024/02/19 10:56:36;;;;;;;3.53;2.85;;;;;;;5.26;100.00;100553.72;5012707;28;20053;-67
2024/02/19 10:59:03;;;;;;;2.25;2.15;;;;;;;5.83;100.00;100546.31;4963600;28;20049;-68
2024/02/19 11:01:48;;;;;;;2.90;2.70;;;;;;;6.74;100.00;100554.66;4966950;28;20041;-67
2024/02/19 11:04:35;;;;;;;3.10;2.80;;;;;;;7.78;100.00;100544.94;4999458;28;20033;-67
2024/02/19 11:07:03;;;;;;;4.20;2.20;;;;;;;8.20;100.00;100532.81;4999564;28;20053;-67
2024/02/19 11:09:33;;;;;;;2.60;2.40;;;;;;;8.33;100.00;100525.63;4983334;28;20132;-67
2024/02/19 11:12:03;;;;;;;2.50;2.30;;;;;;;8.76;100.00;100525.66;5006373;28;20071;-68
2024/02/19 11:14:33;;;;;;;2.72;2.10;;;;;;;9.25;100.00;100526.78;5019682;28;20437;-68
2024/02/19 11:17:04;;;;;;;2.42;2.10;;;;;;;9.76;100.00;100505.63;5036820;28;20156;-67
2024/02/19 11:19:40;;;;;;;4.25;2.60;;;;;;;10.39;100.00;100507.16;5019510;28;20041;-67
2024/02/19 11:22:13;;;;;;;5.82;2.90;;;;;;;10.82;100.00;100510.31;5015273;28;20128;-69